sensor_id;sensor_type;location;lat;lon;timestamp;pressure;altitude;pressure_sealevel;temperature;humidity
41898;BME280;27576;53.366;-1.498;2022-12-20T00:00:49;98640.63;;;9.65;100.00
41898;BME280;27576;53.366;-1.498;2022-12-20T00:03:15;98638.88;;;9.65;100.00
41898;BME280;27576;53.366;-1.498;2022-12-20T00:05:41;98662.03;;;9.74;100.00
41898;BME280;27576;53.366;-1.498;2022-12-20T00:08:08;98648.34;;;9.66;100.00
41898;BME280;27576;53.366;-1.498;2022-12-20T00:10:35;98638.91;;;9.62;100.00
41898;BME280;27576;53.366;-1.498;2022-12-20T00:13:00;98640.56;;;9.69;100.00
41898;BME280;27576;53.366;-1.498;2022-12-20T00:15:26;98629.53;;;9.55;100.00
41898;BME280;27576;53.366;-1.498;2022-12-20T00:17:51;98649.22;;;9.65;100.00
41898;BME280;27576;53.366;-1.498;2022-12-20T00:20:17;98653.59;;;9.63;100.00
41898;BME280;27576;53.366;-1.498;2022-12-20T00:22:42;98636.50;;;9.48;100.00
41898;BME280;27576;53.366;-1.498;2022-12-20T00:25:08;98646.84;;;9.47;100.00
41898;BME280;27576;53.366;-1.498;2022-12-20T00:27:33;98656.25;;;9.54;100.00
41898;BME280;27576;53.366;-1.498;2022-12-20T00:29:58;98639.97;;;9.46;100.00
41898;BME280;27576;53.366;-1.498;2022-12-20T00:32:24;98629.72;;;9.40;100.00
41898;BME280;27576;53.366;-1.498;2022-12-20T00:34:49;98634.81;;;9.43;100.00
41898;BME280;27576;53.366;-1.498;2022-12-20T00:37:14;98666.56;;;9.57;100.00
41898;BME280;27576;53.366;-1.498;2022-12-20T00:39:40;98623.69;;;9.38;100.00
41898;BME280;27576;53.366;-1.498;2022-12-20T00:42:05;98640.06;;;9.40;100.00
41898;BME280;27576;53.366;-1.498;2022-12-20T00:44:31;98652.88;;;9.49;100.00
41898;BME280;27576;53.366;-1.498;2022-12-20T00:46:56;98651.16;;;9.48;100.00
41898;BME280;27576;53.366;-1.498;2022-12-20T00:49:21;98641.78;;;9.38;100.00
41898;BME280;27576;53.366;-1.498;2022-12-20T00:51:47;98656.34;;;9.48;100.00
41898;BME280;27576;53.366;-1.498;2022-12-20T00:54:12;98625.56;;;9.25;100.00
41898;BME280;27576;53.366;-1.498;2022-12-20T00:56:38;98650.38;;;9.38;100.00
41898;BME280;27576;53.366;-1.498;2022-12-20T00:59:03;98665.00;;;9.44;100.00
41898;BME280;27576;53.366;-1.498;2022-12-20T01:01:31;98647.84;;;9.33;100.00
41898;BME280;27576;53.366;-1.498;2022-12-20T01:03:57;98647.06;;;9.28;100.00
41898;BME280;27576;53.366;-1.498;2022-12-20T01:06:23;98661.59;;;9.39;100.00
41898;BME280;27576;53.366;-1.498;2022-12-20T01:08:49;98622.16;;;9.18;100.00
41898;BME280;27576;53.366;-1.498;2022-12-20T01:11:20;98624.75;;;9.20;100.00
41898;BME280;27576;53.366;-1.498;2022-12-20T01:13:49;98651.28;;;9.37;100.00
41898;BME280;27576;53.366;-1.498;2022-12-20T01:16:21;98651.31;;;9.32;100.00
41898;BME280;27576;53.366;-1.498;2022-12-20T01:18:48;98633.34;;;9.22;100.00
41898;BME280;27576;53.366;-1.498;2022-12-20T01:21:15;98658.22;;;9.32;100.00
41898;BME280;27576;53.366;-1.498;2022-12-20T01:23:41;98630.81;;;9.17;100.00
41898;BME280;27576;53.366;-1.498;2022-12-20T01:26:10;98663.41;;;9.27;100.00
41898;BME280;27576;53.366;-1.498;2022-12-20T01:28:37;98651.47;;;9.17;100.00
41898;BME280;27576;53.366;-1.498;2022-12-20T01:31:07;98665.19;;;9.22;100.00
41898;BME280;27576;53.366;-1.498;2022-12-20T01:33:33;98626.63;;;9.02;100.00
41898;BME280;27576;53.366;-1.498;2022-12-20T01:36:01;98666.09;;;9.18;100.00
41898;BME280;27576;53.366;-1.498;2022-12-20T01:38:28;98659.22;;;9.17;100.00
41898;BME280;27576;53.366;-1.498;2022-12-20T01:40:54;98644.66;;;9.07;100.00
41898;BME280;27576;53.366;-1.498;2022-12-20T01:43:20;98648.16;;;9.03;100.00
41898;BME280;27576;53.366;-1.498;2022-12-20T01:45:46;98624.13;;;8.92;100.00
41898;BME280;27576;53.366;-1.498;2022-12-20T01:48:14;98661.88;;;9.09;100.00
41898;BME280;27576;53.366;-1.498;2022-12-20T01:50:41;98659.31;;;9.08;100.00
41898;BME280;27576;53.366;-1.498;2022-12-20T01:53:06;98644.75;;;9.01;100.00
41898;BME280;27576;53.366;-1.498;2022-12-20T01:55:32;98626.75;;;8.90;100.00
41898;BME280;27576;53.366;-1.498;2022-12-20T01:58:03;98656.75;;;9.05;100.00
41898;BME280;27576;53.366;-1.498;2022-12-20T02:00:30;98653.31;;;9.04;100.00
41898;BME280;27576;53.366;-1.498;2022-12-20T02:02:59;98655.94;;;9.01;100.00
41898;BME280;27576;53.366;-1.498;2022-12-20T02:05:25;98649.06;;;8.97;100.00
41898;BME280;27576;53.366;-1.498;2022-12-20T02:07:53;98624.25;;;8.82;100.00
41898;BME280;27576;53.366;-1.498;2022-12-20T02:10:22;98651.63;;;8.99;100.00
41898;BME280;27576;53.366;-1.498;2022-12-20T02:12:54;98605.38;;;8.71;100.00
41898;BME280;27576;53.366;-1.498;2022-12-20T02:15:34;98649.94;;;8.98;100.00
41898;BME280;27576;53.366;-1.498;2022-12-20T02:18:17;98652.50;;;8.98;100.00
41898;BME280;27576;53.366;-1.498;2022-12-20T02:21:00;98655.16;;;8.93;100.00
41898;BME280;27576;53.366;-1.498;2022-12-20T02:29:37;98624.34;;;8.70;100.00
41898;BME280;27576;53.366;-1.498;2022-12-20T02:34:40;98591.03;;;8.35;100.00
41898;BME280;27576;53.366;-1.498;2022-12-20T02:37:06;98647.56;;;8.73;100.00
41898;BME280;27576;53.366;-1.498;2022-12-20T02:39:32;98638.16;;;8.63;100.00
41898;BME280;27576;53.366;-1.498;2022-12-20T02:42:17;98662.16;;;8.80;100.00
41898;BME280;27576;53.366;-1.498;2022-12-20T02:44:58;98673.31;;;8.79;100.00
41898;BME280;27576;53.366;-1.498;2022-12-20T02:50:13;98648.50;;;8.63;100.00
41898;BME280;27576;53.366;-1.498;2022-12-20T02:52:41;98657.06;;;8.67;100.00
41898;BME280;27576;53.366;-1.498;2022-12-20T02:55:07;98654.56;;;8.59;100.00
41898;BME280;27576;53.366;-1.498;2022-12-20T02:57:52;98691.47;;;8.72;100.00
41898;BME280;27576;53.366;-1.498;2022-12-20T03:00:21;98682.13;;;8.57;100.00
41898;BME280;27576;53.366;-1.498;2022-12-20T03:02:48;98650.34;;;8.47;100.00
41898;BME280;27576;53.366;-1.498;2022-12-20T03:05:38;98693.25;;;8.64;100.00
41898;BME280;27576;53.366;-1.498;2022-12-20T03:08:07;98651.28;;;8.37;100.00
41898;BME280;27576;53.366;-1.498;2022-12-20T03:10:33;98677.84;;;8.50;100.00
41898;BME280;27576;53.366;-1.498;2022-12-20T03:12:58;98678.69;;;8.55;100.00
41898;BME280;27576;53.366;-1.498;2022-12-20T03:15:24;98663.28;;;8.43;100.00
41898;BME280;27576;53.366;-1.498;2022-12-20T03:17:49;98640.94;;;8.32;100.00
41898;BME280;27576;53.366;-1.498;2022-12-20T03:20:14;98659.84;;;8.42;100.00
41898;BME280;27576;53.366;-1.498;2022-12-20T03:22:40;98644.38;;;8.31;100.00
41898;BME280;27576;53.366;-1.498;2022-12-20T03:25:05;98676.19;;;8.43;100.00
41898;BME280;27576;53.366;-1.498;2022-12-20T03:27:31;98666.69;;;8.45;100.00
41898;BME280;27576;53.366;-1.498;2022-12-20T03:29:56;98666.75;;;8.37;100.00
41898;BME280;27576;53.366;-1.498;2022-12-20T03:32:22;98664.16;;;8.39;100.00
41898;BME280;27576;53.366;-1.498;2022-12-20T03:34:47;98660.69;;;8.36;100.00
41898;BME280;27576;53.366;-1.498;2022-12-20T03:37:13;98648.75;;;8.20;100.00
41898;BME280;27576;53.366;-1.498;2022-12-20T03:39:38;98650.44;;;8.21;100.00
41898;BME280;27576;53.366;-1.498;2022-12-20T03:42:04;98654.75;;;8.27;100.00
41898;BME280;27576;53.366;-1.498;2022-12-20T03:44:29;98669.34;;;8.28;100.00
41898;BME280;27576;53.366;-1.498;2022-12-20T03:46:54;98678.88;;;8.18;100.00
41898;BME280;27576;53.366;-1.498;2022-12-20T03:49:20;98677.19;;;8.14;100.00
41898;BME280;27576;53.366;-1.498;2022-12-20T03:51:45;98647.97;;;8.04;100.00
41898;BME280;27576;53.366;-1.498;2022-12-20T03:54:11;98624.00;;;7.87;100.00
41898;BME280;27576;53.366;-1.498;2022-12-20T03:56:36;98683.16;;;8.19;100.00
41898;BME280;27576;53.366;-1.498;2022-12-20T03:59:01;98656.59;;;8.03;100.00
41898;BME280;27576;53.366;-1.498;2022-12-20T04:01:28;98684.03;;;8.18;100.00
41898;BME280;27576;53.366;-1.498;2022-12-20T04:03:54;98680.59;;;8.18;100.00
41898;BME280;27576;53.366;-1.498;2022-12-20T04:06:20;98666.94;;;7.96;100.00
41898;BME280;27576;53.366;-1.498;2022-12-20T04:08:47;98677.22;;;8.00;100.00
41898;BME280;27576;53.366;-1.498;2022-12-20T04:11:12;98668.69;;;7.91;100.00
41898;BME280;27576;53.366;-1.498;2022-12-20T04:13:45;98684.13;;;7.98;100.00
41898;BME280;27576;53.366;-1.498;2022-12-20T04:16:12;98680.72;;;7.98;100.00
41898;BME280;27576;53.366;-1.498;2022-12-20T04:18:37;98660.97;;;7.87;100.00
41898;BME280;27576;53.366;-1.498;2022-12-20T04:21:03;98690.13;;;8.03;100.00
41898;BME280;27576;53.366;-1.498;2022-12-20T04:23:28;98681.59;;;7.91;100.00
41898;BME280;27576;53.366;-1.498;2022-12-20T04:25:54;98679.84;;;7.93;100.00
41898;BME280;27576;53.366;-1.498;2022-12-20T04:28:19;98694.44;;;8.00;100.00
41898;BME280;27576;53.366;-1.498;2022-12-20T04:30:45;98652.41;;;7.79;100.00
41898;BME280;27576;53.366;-1.498;2022-12-20T04:33:10;98650.69;;;7.78;100.00
41898;BME280;27576;53.366;-1.498;2022-12-20T04:35:36;98664.44;;;7.80;100.00
41898;BME280;27576;53.366;-1.498;2022-12-20T04:38:01;98679.84;;;7.90;100.00
41898;BME280;27576;53.366;-1.498;2022-12-20T04:40:27;98695.31;;;7.90;100.00
41898;BME280;27576;53.366;-1.498;2022-12-20T04:42:52;98693.63;;;7.92;100.00
41898;BME280;27576;53.366;-1.498;2022-12-20T04:45:17;98690.19;;;7.91;100.00
41898;BME280;27576;53.366;-1.498;2022-12-20T04:47:43;98672.19;;;7.73;100.00
41898;BME280;27576;53.366;-1.498;2022-12-20T04:50:14;98678.16;;;7.90;100.00
41898;BME280;27576;53.366;-1.498;2022-12-20T04:52:39;98690.22;;;7.86;100.00
41898;BME280;27576;53.366;-1.498;2022-12-20T04:55:23;98683.31;;;7.88;100.00
41898;BME280;27576;53.366;-1.498;2022-12-20T04:57:49;98674.75;;;7.83;100.00
41898;BME280;27576;53.366;-1.498;2022-12-20T05:00:14;98686.75;;;7.87;100.00
41898;BME280;27576;53.366;-1.498;2022-12-20T05:02:41;98663.59;;;7.75;100.00
41898;BME280;27576;53.366;-1.498;2022-12-20T05:05:06;98658.44;;;7.72;100.00
41898;BME280;27576;53.366;-1.498;2022-12-20T05:07:32;98668.75;;;7.78;100.00
41898;BME280;27576;53.366;-1.498;2022-12-20T05:09:57;98645.59;;;7.65;100.00
41898;BME280;27576;53.366;-1.498;2022-12-20T05:12:23;98662.72;;;7.73;100.00
41898;BME280;27576;53.366;-1.498;2022-12-20T05:14:48;98643.91;;;7.59;100.00
41898;BME280;27576;53.366;-1.498;2022-12-20T05:17:13;98662.72;;;7.73;100.00
41898;BME280;27576;53.366;-1.498;2022-12-20T05:19:39;98661.91;;;7.67;100.00
41898;BME280;27576;53.366;-1.498;2022-12-20T05:22:04;98643.06;;;7.45;100.00
41898;BME280;27576;53.366;-1.498;2022-12-20T05:24:48;98665.41;;;7.52;100.00
41898;BME280;27576;53.366;-1.498;2022-12-20T05:27:32;98685.09;;;7.65;100.00
41898;BME280;27576;53.366;-1.498;2022-12-20T05:29:57;98690.28;;;7.57;100.00
41898;BME280;27576;53.366;-1.498;2022-12-20T05:32:22;98672.28;;;7.44;100.00
41898;BME280;27576;53.366;-1.498;2022-12-20T05:34:48;98674.88;;;7.41;100.00
41898;BME280;27576;53.366;-1.498;2022-12-20T05:37:13;98674.03;;;7.37;100.00
41898;BME280;27576;53.366;-1.498;2022-12-20T05:39:38;98702.34;;;7.58;100.00
41898;BME280;27576;53.366;-1.498;2022-12-20T05:42:04;98698.00;;;7.54;100.00
41898;BME280;27576;53.366;-1.498;2022-12-20T05:44:29;98689.47;;;7.43;100.00
41898;BME280;27576;53.366;-1.498;2022-12-20T05:46:54;98685.19;;;7.33;100.00
41898;BME280;27576;53.366;-1.498;2022-12-20T05:49:20;98723.78;;;7.54;100.00
41898;BME280;27576;53.366;-1.498;2022-12-20T05:51:45;98715.22;;;7.49;100.00
41898;BME280;27576;53.366;-1.498;2022-12-20T05:54:10;98695.50;;;7.31;100.00
41898;BME280;27576;53.366;-1.498;2022-12-20T05:56:36;98690.34;;;7.27;100.00
41898;BME280;27576;53.366;-1.498;2022-12-20T05:59:01;98698.09;;;7.28;100.00
41898;BME280;27576;53.366;-1.498;2022-12-20T06:01:26;98709.22;;;7.33;100.00
41898;BME280;27576;53.366;-1.498;2022-12-20T06:03:52;98731.56;;;7.36;100.00
41898;BME280;27576;53.366;-1.498;2022-12-20T06:06:17;98690.38;;;7.01;100.00
41898;BME280;27576;53.366;-1.498;2022-12-20T06:08:43;98728.13;;;7.11;100.00
41898;BME280;27576;53.366;-1.498;2022-12-20T06:11:08;98747.88;;;7.18;100.00
41898;BME280;27576;53.366;-1.498;2022-12-20T06:13:33;98740.16;;;7.03;100.00
41898;BME280;27576;53.366;-1.498;2022-12-20T06:15:59;98751.34;;;7.08;100.00
41898;BME280;27576;53.366;-1.498;2022-12-20T06:18:25;98739.31;;;6.93;100.00
41898;BME280;27576;53.366;-1.498;2022-12-20T06:20:51;98761.63;;;7.03;100.00
41898;BME280;27576;53.366;-1.498;2022-12-20T06:23:17;98714.41;;;6.71;100.00
41898;BME280;27576;53.366;-1.498;2022-12-20T06:25:43;98744.44;;;6.81;100.00
41898;BME280;27576;53.366;-1.498;2022-12-20T06:28:09;98776.19;;;6.86;100.00
41898;BME280;27576;53.366;-1.498;2022-12-20T06:30:34;98730.69;;;6.54;100.00
41898;BME280;27576;53.366;-1.498;2022-12-20T06:33:00;98770.16;;;6.72;100.00
41898;BME280;27576;53.366;-1.498;2022-12-20T06:35:26;98771.03;;;6.66;100.00
41898;BME280;27576;53.366;-1.498;2022-12-20T06:37:52;98761.53;;;6.56;100.00
41898;BME280;27576;53.366;-1.498;2022-12-20T06:40:17;98737.50;;;6.34;100.00
41898;BME280;27576;53.366;-1.498;2022-12-20T06:42:42;98771.81;;;6.48;100.00
41898;BME280;27576;53.366;-1.498;2022-12-20T06:45:08;98773.53;;;6.42;100.00
41898;BME280;27576;53.366;-1.498;2022-12-20T06:47:34;98765.75;;;6.26;100.00
41898;BME280;27576;53.366;-1.498;2022-12-20T06:50:00;98788.94;;;6.34;100.00
41898;BME280;27576;53.366;-1.498;2022-12-20T06:52:26;98767.41;;;6.07;100.00
41898;BME280;27576;53.366;-1.498;2022-12-20T06:54:51;98801.75;;;6.23;100.00
41898;BME280;27576;53.366;-1.498;2022-12-20T06:57:17;98804.31;;;6.19;100.00
41898;BME280;27576;53.366;-1.498;2022-12-20T06:59:43;98779.34;;;5.99;100.00
41898;BME280;27576;53.366;-1.498;2022-12-20T07:02:12;98814.56;;;6.12;100.00
41898;BME280;27576;53.366;-1.498;2022-12-20T07:04:38;98804.25;;;6.06;100.00
41898;BME280;27576;53.366;-1.498;2022-12-20T07:07:03;98790.47;;;5.97;100.00
41898;BME280;27576;53.366;-1.498;2022-12-20T07:09:29;98794.75;;;5.95;100.00
41898;BME280;27576;53.366;-1.498;2022-12-20T07:11:55;98800.75;;;5.95;100.00
41898;BME280;27576;53.366;-1.498;2022-12-20T07:14:20;98823.94;;;6.04;100.00
41898;BME280;27576;53.366;-1.498;2022-12-20T07:16:46;98802.41;;;5.88;100.00
41898;BME280;27576;53.366;-1.498;2022-12-20T07:19:12;98819.53;;;5.88;100.00
41898;BME280;27576;53.366;-1.498;2022-12-20T07:21:38;98839.38;;;6.03;100.00
41898;BME280;27576;53.366;-1.498;2022-12-20T07:24:04;98839.34;;;5.94;100.00
41898;BME280;27576;53.366;-1.498;2022-12-20T07:26:30;98822.03;;;5.74;100.00
41898;BME280;27576;53.366;-1.498;2022-12-20T07:28:56;98815.97;;;5.68;100.00
41898;BME280;27576;53.366;-1.498;2022-12-20T07:31:21;98830.59;;;5.75;100.00
41898;BME280;27576;53.366;-1.498;2022-12-20T07:33:46;98834.84;;;5.71;100.00
41898;BME280;27576;53.366;-1.498;2022-12-20T07:36:13;98844.34;;;5.78;100.00
41898;BME280;27576;53.366;-1.498;2022-12-20T07:38:40;98839.13;;;5.74;100.00
41898;BME280;27576;53.366;-1.498;2022-12-20T07:41:07;98821.03;;;5.55;100.00
41898;BME280;27576;53.366;-1.498;2022-12-20T07:43:33;98818.44;;;5.54;100.00
41898;BME280;27576;53.366;-1.498;2022-12-20T07:45:58;98838.16;;;5.58;100.00
41898;BME280;27576;53.366;-1.498;2022-12-20T07:48:24;98826.94;;;5.44;100.00
41898;BME280;27576;53.366;-1.498;2022-12-20T07:50:53;98820.03;;;5.36;100.00
41898;BME280;27576;53.366;-1.498;2022-12-20T07:53:21;98830.31;;;5.35;100.00
41898;BME280;27576;53.366;-1.498;2022-12-20T07:55:48;98850.88;;;5.41;100.00
41898;BME280;27576;53.366;-1.498;2022-12-20T07:58:14;98833.69;;;5.32;100.00
41898;BME280;27576;53.366;-1.498;2022-12-20T08:00:42;98860.34;;;5.44;100.00
41898;BME280;27576;53.366;-1.498;2022-12-20T08:03:13;98845.66;;;5.27;100.00
41898;BME280;27576;53.366;-1.498;2022-12-20T08:05:43;98863.69;;;5.38;100.00
41898;BME280;27576;53.366;-1.498;2022-12-20T08:08:10;98841.28;;;5.22;100.00
41898;BME280;27576;53.366;-1.498;2022-12-20T08:10:36;98843.03;;;5.23;100.00
41898;BME280;27576;53.366;-1.498;2022-12-20T08:13:04;98842.97;;;5.16;100.00
41898;BME280;27576;53.366;-1.498;2022-12-20T08:15:29;98842.91;;;5.10;100.00
41898;BME280;27576;53.366;-1.498;2022-12-20T08:17:55;98887.63;;;5.31;100.00
41898;BME280;27576;53.366;-1.498;2022-12-20T08:20:20;98896.16;;;5.28;100.00
41898;BME280;27576;53.366;-1.498;2022-12-20T08:22:46;98879.75;;;5.12;100.00
41898;BME280;27576;53.366;-1.498;2022-12-20T08:25:11;98852.16;;;4.95;100.00
41898;BME280;27576;53.366;-1.498;2022-12-20T08:27:36;98813.41;;;4.70;100.00
41898;BME280;27576;53.366;-1.498;2022-12-20T08:30:03;98874.53;;;5.05;100.00
41898;BME280;27576;53.366;-1.498;2022-12-20T08:32:28;98900.28;;;5.14;100.00
41898;BME280;27576;53.366;-1.498;2022-12-20T08:34:54;98910.59;;;5.17;100.00
41898;BME280;27576;53.366;-1.498;2022-12-20T08:37:19;98898.56;;;5.13;100.00
41898;BME280;27576;53.366;-1.498;2022-12-20T08:39:45;98914.00;;;5.17;100.00
41898;BME280;27576;53.366;-1.498;2022-12-20T08:42:10;98895.88;;;4.99;100.00
41898;BME280;27576;53.366;-1.498;2022-12-20T08:44:36;98893.28;;;4.98;100.00
41898;BME280;27576;53.366;-1.498;2022-12-20T08:47:01;98882.09;;;4.94;100.00
41898;BME280;27576;53.366;-1.498;2022-12-20T08:49:27;98926.84;;;5.17;100.00
41898;BME280;27576;53.366;-1.498;2022-12-20T08:51:52;98941.41;;;5.17;100.00
41898;BME280;27576;53.366;-1.498;2022-12-20T08:54:18;98877.75;;;4.85;100.00
41898;BME280;27576;53.366;-1.498;2022-12-20T08:56:43;98932.84;;;5.15;100.00
41898;BME280;27576;53.366;-1.498;2022-12-20T08:59:08;98937.09;;;5.14;100.00
41898;BME280;27576;53.366;-1.498;2022-12-20T09:01:34;98917.25;;;5.00;100.00
41898;BME280;27576;53.366;-1.498;2022-12-20T09:03:59;98919.03;;;5.07;100.00
41898;BME280;27576;53.366;-1.498;2022-12-20T09:06:25;98900.16;;;5.00;100.00
41898;BME280;27576;53.366;-1.498;2022-12-20T09:08:50;98939.75;;;5.22;100.00
41898;BME280;27576;53.366;-1.498;2022-12-20T09:11:26;98931.09;;;5.11;100.00
41898;BME280;27576;53.366;-1.498;2022-12-20T09:13:54;98955.22;;;5.28;100.00
41898;BME280;27576;53.366;-1.498;2022-12-20T09:16:23;98960.38;;;5.30;100.00
41898;BME280;27576;53.366;-1.498;2022-12-20T09:18:51;98957.78;;;5.30;100.00
41898;BME280;27576;53.366;-1.498;2022-12-20T09:21:17;98931.13;;;5.17;100.00
41898;BME280;27576;53.366;-1.498;2022-12-20T09:23:43;98954.50;;;5.38;100.00
41898;BME280;27576;53.366;-1.498;2022-12-20T09:26:11;98922.56;;;5.18;100.00
41898;BME280;27576;53.366;-1.498;2022-12-20T09:28:37;98969.09;;;5.43;100.00
41898;BME280;27576;53.366;-1.498;2022-12-20T09:31:05;98963.94;;;5.46;100.00
41898;BME280;27576;53.366;-1.498;2022-12-20T09:33:32;98966.56;;;5.47;100.00
41898;BME280;27576;53.366;-1.498;2022-12-20T09:35:58;98906.25;;;5.11;100.00
41898;BME280;27576;53.366;-1.498;2022-12-20T09:38:24;98946.75;;;5.35;100.00
41898;BME280;27576;53.366;-1.498;2022-12-20T09:40:52;98969.97;;;5.48;100.00
41898;BME280;27576;53.366;-1.498;2022-12-20T09:43:20;98944.19;;;5.37;100.00
41898;BME280;27576;53.366;-1.498;2022-12-20T09:45:47;98967.47;;;5.54;100.00
41898;BME280;27576;53.366;-1.498;2022-12-20T09:48:21;98958.88;;;5.53;100.00
41898;BME280;27576;53.366;-1.498;2022-12-20T09:50:54;98978.75;;;5.68;100.00
41898;BME280;27576;53.366;-1.498;2022-12-20T09:56:15;98956.31;;;5.52;100.00
41898;BME280;27576;53.366;-1.498;2022-12-20T10:01:27;98977.00;;;5.64;100.00
41898;BME280;27576;53.366;-1.498;2022-12-20T10:03:54;98990.84;;;5.78;100.00
41898;BME280;27576;53.366;-1.498;2022-12-20T10:09:12;98965.91;;;5.70;
41898;BME280;27576;53.366;-1.498;2022-12-20T10:12:00;98996.88;;;5.83;100.00
41898;BME280;27576;53.366;-1.498;2022-12-20T10:17:53;99002.88;;;5.85;100.00
41898;BME280;27576;53.366;-1.498;2022-12-20T10:25:39;98983.09;;;5.77;100.00
41898;BME280;27576;53.366;-1.498;2022-12-20T10:28:11;99019.38;;;6.01;100.00
41898;BME280;27576;53.366;-1.498;2022-12-20T10:30:38;98992.63;;;5.88;100.00
41898;BME280;27576;53.366;-1.498;2022-12-20T10:33:03;99010.75;;;6.01;100.00
41898;BME280;27576;53.366;-1.498;2022-12-20T10:35:36;98997.91;;;5.99;100.00
41898;BME280;27576;53.366;-1.498;2022-12-20T10:38:03;99016.91;;;6.15;100.00
41898;BME280;27576;53.366;-1.498;2022-12-20T10:40:36;99016.06;;;6.19;100.00
41898;BME280;27576;53.366;-1.498;2022-12-20T10:43:07;98991.97;;;6.08;100.00
41898;BME280;27576;53.366;-1.498;2022-12-20T10:45:40;99015.22;;;6.19;100.00
41898;BME280;27576;53.366;-1.498;2022-12-20T10:48:25;99031.56;;;6.28;100.00
41898;BME280;27576;53.366;-1.498;2022-12-20T10:56:27;99047.91;;;6.35;100.00
41898;BME280;27576;53.366;-1.498;2022-12-20T10:59:02;99012.66;;;6.22;100.00
41898;BME280;27576;53.366;-1.498;2022-12-20T11:01:31;99046.28;;;6.46;100.00
41898;BME280;27576;53.366;-1.498;2022-12-20T11:04:04;99047.16;;;6.47;100.00
41898;BME280;27576;53.366;-1.498;2022-12-20T11:12:11;99061.84;;;6.61;100.00
41898;BME280;27576;53.366;-1.498;2022-12-20T11:14:42;99066.16;;;6.67;100.00
41898;BME280;27576;53.366;-1.498;2022-12-20T11:17:27;99061.06;;;6.73;100.00
41898;BME280;27576;53.366;-1.498;2022-12-20T11:20:03;99067.13;;;6.81;100.00
41898;BME280;27576;53.366;-1.498;2022-12-20T11:25:22;99050.00;;;6.91;100.00
41898;BME280;27576;53.366;-1.498;2022-12-20T11:31:35;99025.94;;;6.81;100.00
41898;BME280;27576;53.366;-1.498;2022-12-20T11:34:20;99056.09;;;7.01;100.00
41898;BME280;27576;53.366;-1.498;2022-12-20T11:37:16;99044.94;;;7.06;100.00
41898;BME280;27576;53.366;-1.498;2022-12-20T11:39:49;99056.13;;;7.10;100.00
41898;BME280;27576;53.366;-1.498;2022-12-20T11:42:41;99051.00;;;7.13;100.00
41898;BME280;27576;53.366;-1.498;2022-12-20T11:51:22;99051.06;;;7.24;100.00
41898;BME280;27576;53.366;-1.498;2022-12-20T11:54:00;99033.84;;;7.21;100.00
41898;BME280;27576;53.366;-1.498;2022-12-20T11:58:54;99040.78;;;7.36;100.00
41898;BME280;27576;53.366;-1.498;2022-12-20T12:01:30;99042.53;;;7.45;100.00
41898;BME280;27576;53.366;-1.498;2022-12-20T12:04:18;99039.97;;;7.48;100.00
41898;BME280;27576;53.366;-1.498;2022-12-20T12:06:51;99029.66;;;7.49;100.00
41898;BME280;27576;53.366;-1.498;2022-12-20T12:09:43;99032.28;;;7.63;100.00
41898;BME280;27576;53.366;-1.498;2022-12-20T12:12:33;99023.72;;;7.72;100.00
41898;BME280;27576;53.366;-1.498;2022-12-20T12:18:04;99014.28;;;7.78;100.00
41898;BME280;27576;53.366;-1.498;2022-12-20T12:25:43;99022.00;;;7.94;100.00
41898;BME280;27576;53.366;-1.498;2022-12-20T12:28:11;99008.28;;;7.95;100.00
41898;BME280;27576;53.366;-1.498;2022-12-20T12:31:12;99010.00;;;8.02;100.00
41898;BME280;27576;53.366;-1.498;2022-12-20T12:33:47;98979.91;;;7.87;100.00
41898;BME280;27576;53.366;-1.498;2022-12-20T12:37:23;99007.41;;;7.99;100.00
41898;BME280;27576;53.366;-1.498;2022-12-20T12:39:43;99016.88;;;8.03;100.00
41898;BME280;27576;53.366;-1.498;2022-12-20T12:47:43;99009.13;;;8.12;100.00
41898;BME280;27576;53.366;-1.498;2022-12-20T12:52:55;98996.25;;;8.14;100.00
41898;BME280;27576;53.366;-1.498;2022-12-20T12:55:38;98994.53;;;8.29;100.00
41898;BME280;27576;53.366;-1.498;2022-12-20T12:58:13;99000.56;;;8.50;100.00
41898;BME280;27576;53.366;-1.498;2022-12-20T13:01:04;99018.56;;;8.68;100.00
41898;BME280;27576;53.366;-1.498;2022-12-20T13:16:46;98996.50;;;9.89;100.00
41898;BME280;27576;53.366;-1.498;2022-12-20T13:19:14;99009.50;;;9.79;100.00
41898;BME280;27576;53.366;-1.498;2022-12-20T13:21:41;98970.88;;;9.50;100.00
41898;BME280;27576;53.366;-1.498;2022-12-20T13:24:37;99003.59;;;9.61;100.00
41898;BME280;27576;53.366;-1.498;2022-12-20T13:27:14;98989.00;;;9.49;100.00
41898;BME280;27576;53.366;-1.498;2022-12-20T13:29:52;98973.53;;;9.35;100.00
41898;BME280;27576;53.366;-1.498;2022-12-20T13:40:59;98967.78;;;8.81;100.00
41898;BME280;27576;53.366;-1.498;2022-12-20T13:43:28;98958.34;;;8.65;100.00
41898;BME280;27576;53.366;-1.498;2022-12-20T13:48:58;98984.16;;;8.71;100.00
41898;BME280;27576;53.366;-1.498;2022-12-20T13:51:27;98983.34;;;8.53;100.00
41898;BME280;27576;53.366;-1.498;2022-12-20T13:54:01;98967.00;;;8.38;100.00
41898;BME280;27576;53.366;-1.498;2022-12-20T13:56:49;98991.97;;;8.42;100.00
41898;BME280;27576;53.366;-1.498;2022-12-20T13:59:23;98978.16;;;8.20;100.00
41898;BME280;27576;53.366;-1.498;2022-12-20T14:01:56;98990.22;;;8.19;100.00
41898;BME280;27576;53.366;-1.498;2022-12-20T14:04:24;98976.47;;;8.06;100.00
41898;BME280;27576;53.366;-1.498;2022-12-20T14:06:58;98975.59;;;8.09;100.00
41898;BME280;27576;53.366;-1.498;2022-12-20T14:09:27;98957.53;;;8.00;100.00
41898;BME280;27576;53.366;-1.498;2022-12-20T14:11:54;98973.88;;;8.02;100.00
41898;BME280;27576;53.366;-1.498;2022-12-20T14:14:19;98991.06;;;8.03;100.00
41898;BME280;27576;53.366;-1.498;2022-12-20T14:16:44;98962.69;;;7.87;100.00
41898;BME280;27576;53.366;-1.498;2022-12-20T14:19:13;98991.91;;;7.97;100.00
41898;BME280;27576;53.366;-1.498;2022-12-20T14:21:42;98999.66;;;7.96;100.00
41898;BME280;27576;53.366;-1.498;2022-12-20T14:24:14;98993.63;;;7.94;100.00
41898;BME280;27576;53.366;-1.498;2022-12-20T14:26:42;98964.41;;;7.76;100.00
41898;BME280;27576;53.366;-1.498;2022-12-20T14:29:11;98991.94;;;7.91;100.00
41898;BME280;27576;53.366;-1.498;2022-12-20T14:31:42;98987.63;;;7.82;100.00
41898;BME280;27576;53.366;-1.498;2022-12-20T14:36:35;98996.19;;;7.72;100.00